createdAt,value
2019-04-27T00:00:03.631Z,10.14
2019-04-27T00:05:03.293Z,10.05
2019-04-27T00:10:03.347Z,10.01
2019-04-27T00:15:03.330Z,9.99
2019-04-27T00:20:01.586Z,9.99
2019-04-27T00:25:03.420Z,10.04
2019-04-27T00:30:03.708Z,10.03
2019-04-27T00:35:03.710Z,10
2019-04-27T00:40:03.452Z,9.92
2019-04-27T00:45:03.006Z,9.84
2019-04-27T00:50:03.445Z,9.75
2019-04-27T00:55:03.160Z,9.64
2019-04-27T01:00:03.181Z,9.55
2019-04-27T01:05:03.757Z,9.49
2019-04-27T01:10:03.012Z,9.38
2019-04-27T01:15:01.348Z,9.3
2019-04-27T01:20:01.476Z,9.22
2019-04-27T01:25:01.616Z,9.16
2019-04-27T01:30:01.878Z,9.14
2019-04-27T01:35:02.155Z,9.05
2019-04-27T01:40:01.812Z,9.03
2019-04-27T01:45:01.947Z,9.09
2019-04-27T01:50:02.079Z,9.11
2019-04-27T01:55:01.242Z,9.15
2019-04-27T02:00:01.391Z,9.3
2019-04-27T02:05:01.902Z,9.32
2019-04-27T02:10:02.102Z,9.25
2019-04-27T02:15:01.840Z,9.19
2019-04-27T02:20:02.013Z,9.21
2019-04-27T02:25:01.147Z,9.17
2019-04-27T02:30:01.339Z,9.23
2019-04-27T02:35:01.539Z,9.24
2019-04-27T02:40:01.991Z,9.2
2019-04-27T02:45:01.138Z,9.18
2019-04-27T02:50:01.298Z,9.18
2019-04-27T02:55:01.450Z,9.18
2019-04-27T03:00:01.594Z,9.23
2019-04-27T03:05:01.752Z,9.19
2019-04-27T03:10:02.731Z,9.12
2019-04-27T03:15:02.065Z,9.18
2019-04-27T03:20:01.174Z,9.22
2019-04-27T03:25:01.314Z,9.23
2019-04-27T03:30:01.466Z,9.23
2019-04-27T03:35:03.154Z,9.29
2019-04-27T03:40:01.808Z,9.29
2019-04-27T03:45:01.939Z,9.31
2019-04-27T03:50:02.070Z,9.3
2019-04-27T03:55:01.233Z,9.27
2019-04-27T04:00:01.335Z,9.27
2019-04-27T04:05:01.494Z,9.25
2019-04-27T04:10:01.654Z,9.18
2019-04-27T04:15:01.809Z,9.14
2019-04-27T04:20:02.111Z,9.08
2019-04-27T04:25:01.232Z,9.04
2019-04-27T04:30:01.434Z,9.14
2019-04-27T04:35:01.712Z,9.32
2019-04-27T04:40:01.381Z,9.38
2019-04-27T04:45:01.518Z,9.45
2019-04-27T04:50:11.346Z,9.42
2019-04-27T04:55:02.696Z,9.36
2019-04-27T05:00:02.051Z,9.29
2019-04-27T05:05:01.201Z,9.25
2019-04-27T05:10:01.351Z,9.31
2019-04-27T05:15:01.492Z,9.29
2019-04-27T05:20:01.647Z,9.25
2019-04-27T05:25:01.741Z,9.34
2019-04-27T05:30:01.893Z,9.45
2019-04-27T05:35:02.044Z,9.56
2019-04-27T05:40:01.133Z,9.67
2019-04-27T05:45:01.255Z,9.71
2019-04-27T05:50:01.412Z,9.75
2019-04-27T05:55:01.560Z,9.75
2019-04-27T06:00:02.619Z,9.79
2019-04-27T06:05:01.921Z,9.8
2019-04-27T06:10:02.185Z,9.66
2019-04-27T06:15:01.329Z,9.49
2019-04-27T06:20:01.480Z,9.45
2019-04-27T06:25:01.578Z,9.4
2019-04-27T06:30:04.769Z,9.45
2019-04-27T06:35:01.121Z,9.51
2019-04-27T06:40:01.235Z,9.61
2019-04-27T06:45:01.364Z,9.71
2019-04-27T06:50:01.517Z,9.8
2019-04-27T06:55:01.664Z,9.8
2019-04-27T07:00:01.791Z,9.79
2019-04-27T07:05:01.937Z,9.77
2019-04-27T07:10:02.102Z,9.83
2019-04-27T07:15:01.237Z,9.98
2019-04-27T07:20:01.385Z,10
2019-04-27T07:25:01.534Z,10.06
2019-04-27T07:30:01.912Z,10.09
2019-04-27T07:35:02.046Z,10.08
2019-04-27T07:40:01.171Z,10.08
2019-04-27T07:45:01.263Z,10.14
2019-04-27T07:50:01.653Z,10.01
2019-04-27T07:55:01.813Z,9.98
2019-04-27T08:00:01.968Z,9.99
2019-04-27T08:05:01.137Z,9.98
2019-04-27T08:10:01.820Z,10.07
2019-04-27T08:15:02.054Z,10.16
2019-04-27T08:20:01.189Z,10.24
2019-04-27T08:25:01.314Z,10.23
2019-04-27T08:30:01.461Z,10.29
2019-04-27T08:35:01.614Z,10.46
2019-04-27T08:40:01.752Z,10.57
2019-04-27T08:45:01.887Z,10.62
2019-04-27T08:50:02.040Z,10.69
2019-04-27T08:55:01.176Z,10.75
2019-04-27T09:00:01.321Z,10.59
2019-04-27T09:05:01.499Z,10.54
2019-04-27T09:10:01.658Z,10.52
2019-04-27T09:15:01.789Z,10.64
2019-04-27T09:20:01.951Z,10.77
2019-04-27T09:25:02.050Z,10.89
2019-04-27T09:30:01.201Z,10.89
2019-04-27T09:35:01.361Z,11.29
2019-04-27T09:40:01.492Z,11.46
2019-04-27T09:45:01.652Z,11.53
2019-04-27T09:50:01.805Z,11.67
2019-04-27T09:55:01.925Z,11.61
2019-04-27T10:00:02.054Z,11.71
2019-04-27T10:05:01.222Z,11.68
2019-04-27T10:10:01.376Z,11.77
2019-04-27T10:15:01.499Z,11.14
2019-04-27T10:20:01.599Z,9.85
2019-04-27T10:25:01.745Z,9.03
2019-04-27T10:30:01.918Z,8.53
2019-04-27T10:35:02.069Z,8.29
2019-04-27T10:40:01.201Z,7.99
2019-04-27T10:45:01.291Z,7.77
2019-04-27T10:50:01.439Z,7.84
2019-04-27T10:55:01.564Z,7.98
2019-04-27T11:00:01.770Z,8.17
2019-04-27T11:05:01.923Z,8.37
2019-04-27T11:10:02.088Z,8.76
2019-04-27T11:15:01.221Z,8.81
2019-04-27T11:20:02.828Z,8.77
2019-04-27T11:25:02.061Z,8.73
2019-04-27T11:30:01.237Z,8.58
2019-04-27T11:35:01.368Z,8.35
2019-04-27T11:40:01.507Z,8.48
2019-04-27T11:45:01.644Z,8.78
2019-04-27T11:50:01.799Z,8.57
2019-04-27T11:55:01.953Z,8.62
2019-04-27T12:00:02.101Z,8.92
2019-04-27T12:05:01.243Z,9.37
2019-04-27T12:10:01.418Z,9.2
2019-04-27T12:15:01.522Z,9.14
2019-04-27T12:20:01.669Z,8.68
2019-04-27T12:25:01.812Z,8.52
2019-04-27T12:30:01.927Z,8.29
2019-04-27T12:35:02.062Z,8.31
2019-04-27T12:40:01.199Z,8.3
2019-04-27T12:45:01.330Z,8.57
2019-04-27T12:50:01.495Z,8.98
2019-04-27T12:55:01.628Z,9.78
2019-04-27T13:00:01.763Z,9.99
2019-04-27T13:05:01.859Z,10.05
2019-04-27T13:10:02.002Z,10.73
2019-04-27T13:15:01.132Z,10.98
2019-04-27T13:20:01.717Z,11.16
2019-04-27T13:25:01.805Z,11.34
2019-04-27T13:30:04.741Z,11.46
2019-04-27T13:35:02.018Z,11.62
2019-04-27T13:40:07.245Z,11.56
2019-04-27T13:45:01.528Z,11.7
2019-04-27T13:50:01.678Z,11.79
2019-04-27T13:55:01.803Z,12.19
2019-04-27T14:00:01.934Z,12.38
2019-04-27T14:05:02.048Z,12.42
2019-04-27T14:10:01.175Z,12.51
2019-04-27T14:15:01.304Z,12.9
2019-04-27T14:20:01.435Z,12.46
2019-04-27T14:25:01.562Z,11.82
2019-04-27T14:30:01.710Z,11.57
2019-04-27T14:35:01.829Z,11.59
2019-04-27T14:40:01.959Z,11.58
2019-04-27T14:45:02.123Z,10.59
2019-04-27T14:50:01.263Z,10.35
2019-04-27T14:55:01.386Z,9.91
2019-04-27T15:00:01.490Z,9.59
2019-04-27T15:05:01.683Z,9.41
2019-04-27T15:10:01.819Z,9.5
2019-04-27T15:15:01.931Z,10.2
2019-04-27T15:20:02.091Z,10.88
2019-04-27T15:25:11.995Z,11.1
2019-04-27T15:30:06.050Z,11.08
2019-04-27T15:35:05.299Z,10.83
2019-04-27T15:40:08.346Z,9.46
2019-04-27T15:45:01.945Z,8.72
2019-04-27T15:50:02.072Z,8.21
2019-04-27T15:55:02.884Z,8
2019-04-27T16:00:01.173Z,8.06
2019-04-27T16:05:01.324Z,8.07
2019-04-27T16:10:02.784Z,8.26
2019-04-27T16:15:04.995Z,8.39
2019-04-27T16:20:01.356Z,8.48
2019-04-27T16:25:03.803Z,8.45
2019-04-27T16:30:09.883Z,8.51
2019-04-27T16:35:01.198Z,8.46
2019-04-27T16:40:01.361Z,8.32
2019-04-27T16:45:01.506Z,8.32
2019-04-27T16:50:01.645Z,8.3
2019-04-27T16:55:01.740Z,8.38
2019-04-27T17:00:01.941Z,8.64
2019-04-27T17:05:02.077Z,8.62
2019-04-27T17:10:01.213Z,8.66
2019-04-27T17:15:01.341Z,8.79
2019-04-27T17:20:01.510Z,8.94
2019-04-27T17:25:01.641Z,8.96
2019-04-27T17:30:01.924Z,8.95
2019-04-27T17:35:05.026Z,8.87
2019-04-27T17:40:01.888Z,8.76
2019-04-27T17:45:02.009Z,8.6
2019-04-27T17:50:01.141Z,8.62
2019-04-27T17:55:01.299Z,8.67
2019-04-27T18:00:03.233Z,8.73
2019-04-27T18:05:01.699Z,8.74
2019-04-27T18:10:01.828Z,8.7
2019-04-27T18:15:01.933Z,8.6
2019-04-27T18:20:02.098Z,8.53
2019-04-27T18:25:06.068Z,8.38
2019-04-27T18:30:03.258Z,8.27
2019-04-27T18:35:01.663Z,8.14
2019-04-27T18:40:01.815Z,8
2019-04-27T18:45:06.812Z,7.89
2019-04-27T18:50:10.979Z,7.81
2019-04-27T18:55:01.718Z,7.78
2019-04-27T19:00:01.877Z,7.78
2019-04-27T19:05:01.990Z,7.85
2019-04-27T19:10:02.223Z,7.84
2019-04-27T19:15:01.402Z,7.78
2019-04-27T19:20:01.609Z,7.69
2019-04-27T19:25:01.705Z,7.56
2019-04-27T19:30:01.827Z,7.42
2019-04-27T19:35:01.977Z,7.35
2019-04-27T19:40:02.135Z,7.33
2019-04-27T19:45:01.269Z,7.32
2019-04-27T19:50:01.390Z,7.37
2019-04-27T19:55:01.482Z,7.41
2019-04-27T20:00:01.647Z,7.47
2019-04-27T20:05:01.780Z,7.44
2019-04-27T20:10:01.911Z,7.39
2019-04-27T20:15:02.278Z,7.32
2019-04-27T20:20:01.649Z,7.3
2019-04-27T20:25:02.127Z,7.26
2019-04-27T20:30:03.074Z,7.24
2019-04-27T20:35:01.761Z,7.18
2019-04-27T20:40:02.035Z,7.16
2019-04-27T20:45:02.122Z,7.16
2019-04-27T20:50:01.363Z,7.07
2019-04-27T20:55:01.656Z,7.12
2019-04-27T21:00:02.168Z,7.09
2019-04-27T21:05:01.410Z,7.02
2019-04-27T21:10:01.547Z,6.96
2019-04-27T21:15:01.677Z,6.89
2019-04-27T21:20:01.821Z,6.86
2019-04-27T21:25:01.958Z,6.85
2019-04-27T21:30:02.807Z,6.88
2019-04-27T21:35:02.045Z,7.02
2019-04-27T21:40:02.044Z,7.1
2019-04-27T21:45:01.306Z,7.13
2019-04-27T21:50:01.457Z,7.12
2019-04-27T21:55:01.618Z,7.15
2019-04-27T22:00:01.749Z,7.19
2019-04-27T22:05:01.861Z,7.19
2019-04-27T22:10:02.070Z,7.2
2019-04-27T22:15:01.226Z,7.27
2019-04-27T22:20:01.670Z,7.3
2019-04-27T22:25:01.918Z,7.29
2019-04-27T22:30:02.058Z,7.28
2019-04-27T22:35:01.181Z,7.28
2019-04-27T22:40:01.306Z,7.28
2019-04-27T22:45:01.451Z,7.3
2019-04-27T22:50:01.592Z,7.31
2019-04-27T22:55:01.780Z,7.3
2019-04-27T23:00:03.662Z,7.29
2019-04-27T23:05:02.359Z,7.3
2019-04-27T23:10:01.892Z,7.3
2019-04-27T23:15:02.056Z,7.32
2019-04-27T23:20:01.575Z,7.32
2019-04-27T23:25:01.761Z,7.29
2019-04-27T23:30:01.856Z,7.29
2019-04-27T23:35:01.991Z,7.32
2019-04-27T23:40:02.985Z,7.29
2019-04-27T23:45:01.207Z,7.32
2019-04-27T23:50:01.347Z,7.3
2019-04-27T23:55:02.338Z,7.27
